Time;durP1;ratioP1;P1;durP2;ratioP2;P2;SDS_P1;SDS_P2;PMS_P1;PMS_P2;Temp;Humidity;BMP_temperature;BMP_pressure;BME280_temperature;BME280_humidity;BME280_pressure;Samples;Min_cycle;Max_cycle;Signal;HPM_P1;HPM_P2
2023/12/05 00:03:27;;;;;;;1.55;1.00;;;;;;;18.15;32.61;99586.06;16114252;19;129358;-52
2023/12/05 00:08:49;;;;;;;1.20;1.08;;;;;;;18.11;32.48;99585.75;16111986;19;131105;-48
2023/12/05 00:14:11;;;;;;;1.67;1.27;;;;;;;18.08;32.54;99578.03;16109598;19;130801;-47
2023/12/05 00:19:33;;;;;;;1.10;1.00;;;;;;;18.04;32.88;99563.06;16108440;19;129647;-45
2023/12/05 00:24:56;;;;;;;1.83;1.30;;;;;;;17.99;32.57;99566.66;16106580;19;131323;-49
2023/12/05 00:30:18;;;;;;;1.75;1.10;;;;;;;17.97;33.05;99573.59;16103228;19;129488;-46
2023/12/05 00:35:40;;;;;;;2.25;1.13;;;;;;;17.95;32.69;99567.50;16108978;19;134172;-46
2023/12/05 00:41:02;;;;;;;1.60;1.10;;;;;;;17.91;32.94;99569.13;16110400;19;130657;-48
2023/12/05 00:46:24;;;;;;;1.65;1.27;;;;;;;17.87;32.84;99568.00;16105767;19;129997;-47
2023/12/05 00:51:46;;;;;;;2.05;1.30;;;;;;;17.83;32.95;99571.34;16109567;19;131420;-44
2023/12/05 00:57:08;;;;;;;1.63;1.08;;;;;;;17.80;32.78;99574.66;16109976;19;130837;-48
2023/12/05 01:02:30;;;;;;;1.30;1.13;;;;;;;17.77;33.25;99575.19;16108089;19;129833;-48
2023/12/05 01:07:52;;;;;;;2.03;1.20;;;;;;;17.75;33.25;99574.63;16108899;19;130523;-44
2023/12/05 01:13:14;;;;;;;2.28;1.27;;;;;;;17.73;32.91;99576.03;16105608;19;130385;-49
2023/12/05 01:18:36;;;;;;;1.67;1.13;;;;;;;17.71;33.06;99576.31;16122535;19;129771;-45
2023/12/05 01:23:58;;;;;;;1.25;1.10;;;;;;;17.70;33.35;99585.69;16138111;19;130658;-49
2023/12/05 01:29:20;;;;;;;2.20;1.15;;;;;;;17.68;32.89;99576.84;16136042;19;129467;-46
2023/12/05 01:34:43;;;;;;;1.30;0.90;;;;;;;17.66;33.36;99576.28;16139105;19;129392;-49
2023/12/05 01:40:08;;;;;;;2.05;1.60;;;;;;;17.64;33.28;99582.09;16139089;19;129435;-50
2023/12/05 01:45:30;;;;;;;1.88;1.08;;;;;;;17.63;33.02;99582.34;16136989;19;131342;-47
2023/12/05 01:50:54;;;;;;;1.33;1.00;;;;;;;17.61;33.06;99581.78;16132063;19;129607;-47
2023/12/05 01:56:18;;;;;;;1.77;1.00;;;;;;;17.58;33.29;99579.59;16131342;19;130401;-49
2023/12/05 02:01:41;;;;;;;1.10;1.00;;;;;;;17.56;33.42;99590.09;16133551;19;129941;-46
2023/12/05 02:07:04;;;;;;;1.40;1.13;;;;;;;17.53;33.04;99589.47;16134155;19;131193;-51
2023/12/05 02:12:26;;;;;;;1.05;0.95;;;;;;;17.51;33.22;99586.16;16136294;19;130233;-48
2023/12/05 02:18:18;;;;;;;1.10;1.00;;;;;;;17.51;33.05;99585.34;16137473;19;130278;-48
2023/12/05 02:24:09;;;;;;;1.80;1.17;;;;;;;17.46;33.08;99594.44;16137284;19;130613;-46
2023/12/05 02:29:31;;;;;;;1.30;1.17;;;;;;;17.43;33.59;99591.38;16128489;19;131680;-47
2023/12/05 02:34:53;;;;;;;1.48;1.30;;;;;;;17.42;33.25;99589.72;16116667;19;131122;-46
2023/12/05 02:40:26;;;;;;;1.33;1.23;;;;;;;17.38;33.29;99595.81;16117422;19;130721;-49
2023/12/05 02:45:50;;;;;;;1.77;1.23;;;;;;;17.37;33.21;99593.28;16114340;19;130020;-46
2023/12/05 02:51:28;;;;;;;1.85;1.35;;;;;;;17.35;33.25;99601.03;16114895;19;129591;-46
2023/12/05 02:56:50;;;;;;;1.23;1.13;;;;;;;17.33;33.53;99598.53;16114585;19;130761;-46
2023/12/05 03:02:12;;;;;;;1.23;1.10;;;;;;;17.33;33.58;99600.47;16114946;19;129569;-49
2023/12/05 03:07:34;;;;;;;2.13;1.33;;;;;;;17.30;33.65;99604.59;16114765;19;131617;-49
2023/12/05 03:12:56;;;;;;;1.25;1.15;;;;;;;17.30;33.72;99603.78;16114013;19;131670;-48
2023/12/05 03:18:18;;;;;;;1.55;1.30;;;;;;;17.28;33.58;99604.06;16115216;19;130663;-48
2023/12/05 03:23:40;;;;;;;1.30;1.13;;;;;;;17.26;33.64;99605.41;16115540;19;130181;-47
2023/12/05 03:29:02;;;;;;;1.30;0.98;;;;;;;17.24;33.37;99603.75;16115450;19;130591;-47
2023/12/05 03:34:24;;;;;;;1.20;1.00;;;;;;;17.23;33.70;99606.78;16117641;19;130173;-48
2023/12/05 03:39:46;;;;;;;1.90;1.20;;;;;;;17.22;33.58;99605.97;16110774;19;131305;-47
2023/12/05 03:45:08;;;;;;;1.40;1.20;;;;;;;17.20;33.48;99605.41;16112961;19;130455;-48
2023/12/05 03:50:30;;;;;;;1.42;1.30;;;;;;;17.19;33.49;99612.03;16113334;19;129570;-44
2023/12/05 03:55:52;;;;;;;1.63;1.25;;;;;;;17.18;33.38;99612.28;16109950;19;131225;-45
2023/12/05 04:01:15;;;;;;;1.95;1.33;;;;;;;17.16;33.79;99620.03;16113764;19;129665;-52
2023/12/05 04:06:37;;;;;;;1.85;1.58;;;;;;;17.14;33.67;99622.22;16114149;19;130407;-46
2023/12/05 04:11:59;;;;;;;2.40;1.60;;;;;;;17.13;33.68;99637.94;16111656;19;132591;-47
2023/12/05 04:17:22;;;;;;;1.38;1.27;;;;;;;17.11;33.61;99640.16;16112261;19;129749;-48
2023/12/05 04:22:44;;;;;;;1.83;1.33;;;;;;;17.10;33.50;99643.19;16112830;19;130196;-45
2023/12/05 04:28:06;;;;;;;1.50;1.30;;;;;;;17.08;33.65;99652.56;16111399;19;130760;-46
2023/12/05 04:33:28;;;;;;;1.33;1.23;;;;;;;17.06;33.87;99652.00;16113658;19;130915;-47
2023/12/05 04:38:50;;;;;;;1.63;1.50;;;;;;;17.04;33.73;99651.47;16112837;19;130059;-45
2023/12/05 04:44:12;;;;;;;1.52;1.25;;;;;;;17.03;33.73;99649.78;16108672;19;129645;-45
2023/12/05 04:49:34;;;;;;;1.58;1.23;;;;;;;17.03;33.58;99660.00;16107948;19;129719;-46
2023/12/05 04:54:56;;;;;;;1.60;1.17;;;;;;;17.01;33.59;99656.66;16110433;19;132364;-46
2023/12/05 05:00:18;;;;;;;1.83;1.30;;;;;;;17.00;33.88;99666.06;16110334;19;129510;-49
2023/12/05 05:05:40;;;;;;;1.40;1.20;;;;;;;16.99;33.74;99670.75;16112311;19;131209;-47
2023/12/05 05:11:02;;;;;;;2.60;1.50;;;;;;;16.98;34.03;99671.03;16106531;19;132109;-45
2023/12/05 05:16:24;;;;;;;1.30;1.20;;;;;;;16.96;33.62;99681.50;16109757;19;130820;-45
2023/12/05 05:21:46;;;;;;;1.70;1.20;;;;;;;16.94;33.97;99684.53;16110598;19;131084;-45
2023/12/05 05:27:08;;;;;;;2.20;1.38;;;;;;;16.92;33.55;99686.75;16101243;19;129601;-49
2023/12/05 05:32:30;;;;;;;1.30;1.20;;;;;;;16.90;33.59;99688.94;16109208;19;129408;-47
2023/12/05 05:37:52;;;;;;;1.50;1.40;;;;;;;16.88;33.57;99694.72;16107794;19;129512;-47
2023/12/05 05:43:14;;;;;;;1.55;1.30;;;;;;;16.87;33.64;99693.03;16107951;19;133366;-45
2023/12/05 05:48:36;;;;;;;1.77;1.30;;;;;;;16.86;33.94;99699.66;16105113;19;131157;-50
2023/12/05 05:53:58;;;;;;;1.83;1.52;;;;;;;16.84;33.53;99707.41;16106767;19;131086;-51
2023/12/05 05:59:20;;;;;;;1.63;1.40;;;;;;;16.83;33.43;99711.25;16105089;19;131493;-49
2023/12/05 06:04:43;;;;;;;1.92;1.17;;;;;;;16.83;33.67;99716.78;16101593;19;130513;-46
2023/12/05 06:10:05;;;;;;;1.52;1.17;;;;;;;16.82;33.59;99730.84;16115361;19;130198;-45
2023/12/05 06:15:27;;;;;;;1.77;1.27;;;;;;;16.81;33.87;99742.97;16111035;19;129682;-50
2023/12/05 06:20:51;;;;;;;4.07;1.15;;;;;;;16.89;34.07;99737.81;16120687;19;129769;-49
2023/12/05 06:26:13;;;;;;;1.17;1.00;;;;;;;17.23;33.50;99754.09;16120160;19;131459;-47
2023/12/05 06:31:35;;;;;;;1.35;1.00;;;;;;;17.73;33.39;99751.09;16116963;19;131242;-46
2023/12/05 06:36:58;;;;;;;1.67;1.02;;;;;;;18.40;32.64;99758.88;16120941;19;130565;-45
2023/12/05 06:42:20;;;;;;;0.82;0.80;;;;;;;18.98;32.04;99769.72;16119944;19;135179;-44
2023/12/05 06:47:42;;;;;;;0.77;0.77;;;;;;;19.52;31.00;99775.81;16115204;19;130309;-45
2023/12/05 06:53:04;;;;;;;1.00;0.77;;;;;;;19.93;30.81;99781.25;16118976;19;129679;-44
2023/12/05 06:58:26;;;;;;;1.02;0.93;;;;;;;20.05;30.33;99785.69;16111500;19;130316;-46
2023/12/05 07:03:48;;;;;;;1.40;0.90;;;;;;;20.02;30.65;99797.38;16114938;19;129471;-45
2023/12/05 07:09:17;;;;;;;1.33;1.23;;;;;;;19.87;30.71;99799.03;16118640;19;129548;-46
2023/12/05 07:14:39;;;;;;;1.48;1.38;;;;;;;19.68;30.83;99802.44;16114824;19;130101;-44
2023/12/05 07:20:01;;;;;;;11.00;1.85;;;;;;;19.49;30.55;99818.84;16112673;19;129726;-43
2023/12/05 07:25:23;;;;;;;1.70;1.30;;;;;;;19.29;30.92;99832.69;16111188;19;130037;-46
2023/12/05 07:30:45;;;;;;;2.67;1.80;;;;;;;19.09;31.33;99839.88;16110715;19;130399;-47
2023/12/05 07:36:08;;;;;;;2.13;1.92;;;;;;;18.94;31.07;99851.78;16116541;19;129390;-45
2023/12/05 07:41:30;;;;;;;1.90;1.65;;;;;;;18.81;31.19;99855.91;16113575;19;130290;-46
2023/12/05 07:46:52;;;;;;;2.00;1.65;;;;;;;18.96;31.61;99880.03;16112016;19;129591;-44
2023/12/05 07:52:14;;;;;;;1.85;1.63;;;;;;;19.30;30.79;99881.50;16112464;19;129510;-46
2023/12/05 07:57:36;;;;;;;2.45;1.55;;;;;;;19.72;30.76;99882.31;16115861;19;130333;-47
2023/12/05 08:02:58;;;;;;;2.53;1.63;;;;;;;20.11;30.71;99890.06;16113968;19;129472;-47
2023/12/05 08:08:20;;;;;;;2.42;1.73;;;;;;;20.49;30.37;99903.56;16105892;19;129810;-47
2023/12/05 08:13:42;;;;;;;2.42;1.70;;;;;;;20.84;29.76;99908.13;16113125;19;129544;-49
2023/12/05 08:19:04;;;;;;;4.13;2.05;;;;;;;21.10;29.71;99916.31;16110713;19;130270;-48
2023/12/05 08:24:26;;;;;;;2.55;1.83;;;;;;;21.30;29.07;99922.84;16112195;19;129525;-45
2023/12/05 08:29:48;;;;;;;2.03;1.70;;;;;;;21.38;28.91;99933.38;16112171;19;129584;-48
2023/12/05 08:35:10;;;;;;;3.03;2.00;;;;;;;21.43;29.23;99936.13;16108179;19;131469;-45
2023/12/05 08:40:33;;;;;;;2.85;2.13;;;;;;;21.45;28.92;99944.19;16107890;19;129298;-49
2023/12/05 08:45:54;;;;;;;5.38;2.83;;;;;;;21.41;28.91;99957.84;16108723;19;132373;-48
2023/12/05 08:51:18;;;;;;;3.95;2.70;;;;;;;21.25;28.93;99967.41;16108239;19;130717;-47
2023/12/05 08:56:40;;;;;;;4.20;3.10;;;;;;;21.12;29.24;99966.94;16109544;19;130316;-47
2023/12/05 09:02:03;;;;;;;4.50;2.95;;;;;;;20.98;29.12;99977.88;16111925;19;130956;-48
2023/12/05 09:07:25;;;;;;;3.30;2.55;;;;;;;20.86;29.60;99980.97;16107831;19;130309;-44
2023/12/05 09:12:47;;;;;;;3.28;2.60;;;;;;;20.78;29.46;99987.13;16103531;19;130306;-49
2023/12/05 09:18:10;;;;;;;3.15;2.60;;;;;;;20.69;29.87;99994.31;16109760;19;129609;-45
2023/12/05 09:23:32;;;;;;;2.50;2.15;;;;;;;20.58;29.84;99994.34;16103673;19;130438;-48
2023/12/05 09:28:55;;;;;;;2.95;2.45;;;;;;;20.48;30.16;99997.16;16108893;19;129682;-46
2023/12/05 09:34:18;;;;;;;2.95;2.60;;;;;;;20.41;29.85;100010.53;16108398;19;129882;-44
2023/12/05 09:39:41;;;;;;;3.30;2.50;;;;;;;20.35;30.34;100023.59;16112493;19;130335;-48
2023/12/05 09:45:07;;;;;;;3.20;2.83;;;;;;;20.26;30.16;100047.47;16126233;19;129433;-50
2023/12/05 09:50:29;;;;;;;3.92;2.97;;;;;;;20.12;30.54;100052.78;16123445;19;129268;-50
2023/12/05 09:55:51;;;;;;;6.03;3.28;;;;;;;19.98;30.22;100058.84;16119957;19;129647;-46
2023/12/05 10:01:15;;;;;;;4.90;3.50;;;;;;;19.83;30.38;100075.47;16118520;19;130472;-51
2023/12/05 10:06:37;;;;;;;4.00;3.42;;;;;;;19.73;30.41;100083.78;16113260;19;130793;-45
2023/12/05 10:11:59;;;;;;;3.90;3.50;;;;;;;19.77;30.33;100091.28;16118289;19;131006;-49
2023/12/05 10:17:21;;;;;;;4.65;3.22;;;;;;;19.90;30.25;100095.50;16118517;19;131028;-49
2023/12/05 10:22:43;;;;;;;5.65;3.55;;;;;;;20.06;30.32;100093.59;16123136;19;129379;-47
2023/12/05 10:28:06;;;;;;;3.90;2.65;;;;;;;20.20;30.00;100099.41;16119379;19;129892;-47
2023/12/05 10:33:28;;;;;;;5.10;3.00;;;;;;;20.34;30.02;100099.72;16119291;19;129578;-45
2023/12/05 10:38:51;;;;;;;4.15;3.08;;;;;;;20.46;30.02;100107.75;16122611;19;130657;-47
2023/12/05 10:44:13;;;;;;;3.85;2.58;;;;;;;20.55;29.77;100114.44;16119601;19;129646;-49
2023/12/05 10:49:35;;;;;;;3.47;2.53;;;;;;;20.56;29.67;100121.63;16116860;19;130925;-47
2023/12/05 10:54:57;;;;;;;3.05;2.50;;;;;;;20.54;30.36;100125.81;16122592;19;131186;-47
2023/12/05 11:00:20;;;;;;;3.30;2.15;;;;;;;20.52;30.34;100133.59;16116106;19;134632;-44
2023/12/05 11:05:42;;;;;;;2.72;2.13;;;;;;;20.51;30.28;100138.31;16120516;19;130593;-44
2023/12/05 11:11:05;;;;;;;2.55;1.90;;;;;;;20.47;30.36;100148.31;16118064;19;129996;-47
2023/12/05 11:16:30;;;;;;;2.20;1.75;;;;;;;20.43;30.51;100161.13;16114695;19;129957;-45
2023/12/05 11:21:55;;;;;;;;;;;;;;;20.36;30.46;100157.75;16116449;19;130272;-44
2023/12/05 11:27:35;;;;;;;3.22;1.83;;;;;;;20.34;30.24;100162.75;16114294;19;129584;-46
2023/12/05 11:33:09;;;;;;;3.20;2.30;;;;;;;20.27;30.51;100166.66;16113672;19;129857;-46
2023/12/05 11:38:32;;;;;;;2.10;1.90;;;;;;;20.24;30.28;100172.75;16117640;19;129624;-45
2023/12/05 11:44:12;;;;;;;2.42;2.10;;;;;;;20.22;30.40;100190.81;16117926;19;129692;-43
2023/12/05 11:49:38;;;;;;;3.05;1.95;;;;;;;20.13;30.49;100198.84;16115370;19;130818;-46
2023/12/05 11:55:03;;;;;;;2.75;2.45;;;;;;;20.04;30.52;100195.75;16116323;19;129574;-47
2023/12/05 12:00:31;;;;;;;3.28;2.47;;;;;;;19.93;30.68;100211.53;16114497;19;129991;-44
2023/12/05 12:06:02;;;;;;;3.28;2.47;;;;;;;19.84;30.26;100213.16;16112832;19;129670;-45
2023/12/05 12:11:24;;;;;;;2.63;2.00;;;;;;;19.73;30.55;100228.09;16112426;19;129306;-45
2023/12/05 12:16:48;;;;;;;3.58;2.38;;;;;;;19.58;30.87;100223.31;16116771;19;130682;-45
2023/12/05 12:22:13;;;;;;;2.70;2.30;;;;;;;19.48;30.90;100240.72;16113310;19;130342;-44
2023/12/05 12:27:36;;;;;;;5.10;2.35;;;;;;;19.38;30.91;100249.84;16114960;19;130836;-47
2023/12/05 12:33:09;;;;;;;3.95;2.50;;;;;;;19.26;31.12;100255.59;16116135;19;130366;-45
2023/12/05 12:38:33;;;;;;;2.72;2.10;;;;;;;19.12;31.02;100249.66;16116230;19;129720;-46
2023/12/05 12:43:55;;;;;;;3.85;2.33;;;;;;;19.04;31.18;100259.28;16116019;19;131205;-46
2023/12/05 12:49:17;;;;;;;3.05;2.20;;;;;;;19.00;31.27;100265.63;16112050;19;130861;-45
2023/12/05 12:54:43;;;;;;;2.25;1.90;;;;;;;18.99;30.81;100281.41;16114835;19;134343;-45
2023/12/05 13:00:05;;;;;;;;;;;;;;;19.09;30.84;100277.91;16113893;19;129814;-46
2023/12/05 13:05:48;;;;;;;1.90;1.60;;;;;;;19.34;30.63;100282.81;16113494;19;129638;-45
2023/12/05 13:11:11;;;;;;;1.65;1.55;;;;;;;19.58;30.65;100279.63;16112484;19;131024;-43
2023/12/05 13:16:37;;;;;;;2.47;1.95;;;;;;;19.83;30.15;100284.50;16111928;19;129743;-45
2023/12/05 13:21:59;;;;;;;1.70;1.60;;;;;;;20.04;30.20;100289.34;16107257;19;130956;-47
2023/12/05 13:27:21;;;;;;;2.15;1.63;;;;;;;20.20;29.95;100290.22;16107792;19;129605;-44
2023/12/05 13:32:44;;;;;;;1.95;1.60;;;;;;;20.34;29.82;100299.72;16113853;19;129855;-46
2023/12/05 13:38:07;;;;;;;2.22;1.40;;;;;;;20.41;29.97;100291.94;16117471;19;129629;-47
2023/12/05 13:43:29;;;;;;;2.50;1.95;;;;;;;20.45;29.71;100297.78;16114548;19;129674;-47
2023/12/05 13:48:51;;;;;;;2.20;1.63;;;;;;;20.44;29.74;100310.84;16110732;19;131156;-49
2023/12/05 13:54:13;;;;;;;2.08;1.70;;;;;;;20.36;29.92;100318.88;16106628;19;129497;-49
2023/12/05 13:59:35;;;;;;;2.63;1.67;;;;;;;20.23;29.80;100323.84;16105817;19;129706;-50
2023/12/05 14:04:57;;;;;;;1.73;1.50;;;;;;;20.10;30.12;100339.06;16112445;19;129807;-49
2023/12/05 14:10:19;;;;;;;2.08;1.77;;;;;;;19.96;30.45;100348.97;16108573;19;131608;-49
2023/12/05 14:15:41;;;;;;;1.70;1.60;;;;;;;19.82;30.71;100346.66;16105674;19;130624;-45
2023/12/05 14:21:04;;;;;;;2.35;1.80;;;;;;;19.69;30.74;100355.47;16115832;19;129208;-47
2023/12/05 14:26:26;;;;;;;2.75;1.77;;;;;;;19.58;30.83;100360.09;16129633;19;131134;-47
2023/12/05 14:31:48;;;;;;;2.22;1.83;;;;;;;19.45;30.76;100378.03;16137866;19;129412;-47
2023/12/05 14:37:10;;;;;;;1.85;1.55;;;;;;;19.36;30.73;100377.69;16143175;19;131708;-48
2023/12/05 14:42:35;;;;;;;2.00;1.70;;;;;;;19.26;31.27;100393.44;16140726;19;129700;-44
2023/12/05 14:47:57;;;;;;;2.10;1.50;;;;;;;19.16;30.97;100408.81;16141236;19;131564;-50
2023/12/05 14:53:19;;;;;;;2.38;1.73;;;;;;;19.08;31.43;100418.44;16143269;19;130379;-47
2023/12/05 14:58:41;;;;;;;3.05;2.00;;;;;;;19.00;31.58;100427.25;16142688;19;129917;-43
2023/12/05 15:04:03;;;;;;;4.47;1.98;;;;;;;18.95;31.30;100429.97;16141920;19;130512;-46
2023/12/05 15:09:26;;;;;;;2.20;1.60;;;;;;;19.02;31.46;100441.69;16142036;19;131279;-46
2023/12/05 15:14:48;;;;;;;2.17;1.60;;;;;;;19.19;30.98;100443.53;16141595;19;129352;-49
2023/12/05 15:20:11;;;;;;;1.85;1.45;;;;;;;19.43;30.77;100452.38;16131334;19;130270;-47
2023/12/05 15:25:45;;;;;;;1.70;1.50;;;;;;;19.71;30.95;100464.28;16119565;19;129881;-45
2023/12/05 15:31:08;;;;;;;2.08;1.58;;;;;;;19.95;30.32;100470.25;16119516;19;129323;-44
2023/12/05 15:36:30;;;;;;;1.77;1.55;;;;;;;20.12;30.43;100477.63;16120015;19;130052;-43
2023/12/05 15:41:52;;;;;;;2.72;1.70;;;;;;;20.26;30.08;100489.09;16121429;19;129461;-47
2023/12/05 15:47:14;;;;;;;2.30;1.77;;;;;;;20.36;30.16;100493.91;16118946;19;129545;-45
2023/12/05 15:52:37;;;;;;;2.33;1.67;;;;;;;20.41;29.98;100493.94;16115007;19;131968;-45
2023/12/05 15:58:01;;;;;;;2.45;1.60;;;;;;;20.43;29.54;100492.56;16115548;19;131628;-47
2023/12/05 16:03:23;;;;;;;2.33;1.63;;;;;;;20.41;30.07;100502.28;16114157;19;130190;-44
2023/12/05 16:08:45;;;;;;;2.38;1.63;;;;;;;20.36;29.74;100513.34;16116956;19;129164;-44
2023/12/05 16:14:07;;;;;;;1.65;1.50;;;;;;;20.39;29.78;100518.38;16111742;19;130028;-47
2023/12/05 16:19:29;;;;;;;1.58;1.35;;;;;;;20.51;29.98;100521.78;16113006;19;130106;-44
2023/12/05 16:24:52;;;;;;;3.80;1.50;;;;;;;20.64;29.97;100534.34;16113116;19;129557;-50
2023/12/05 16:30:14;;;;;;;2.58;1.70;;;;;;;20.72;29.90;100535.78;16112240;19;130669;-47
2023/12/05 16:35:36;;;;;;;2.30;1.70;;;;;;;20.75;29.72;100538.88;16109555;19;131933;-46
2023/12/05 16:40:58;;;;;;;2.63;1.73;;;;;;;20.76;29.46;100539.72;16100851;19;131401;-47
2023/12/05 16:46:20;;;;;;;3.05;1.77;;;;;;;20.75;29.51;100549.16;16103149;19;130918;-43
2023/12/05 16:51:42;;;;;;;3.78;1.85;;;;;;;20.71;29.91;100548.84;16103515;19;129672;-47
2023/12/05 16:57:04;;;;;;;2.70;2.20;;;;;;;20.65;29.47;100549.09;16107684;19;130004;-43
2023/12/05 17:02:26;;;;;;;3.65;2.60;;;;;;;20.55;29.88;100560.97;16110555;19;130086;-45
2023/12/05 17:07:48;;;;;;;5.22;3.45;;;;;;;20.42;29.72;100565.06;16113134;19;129782;-45
2023/12/05 17:13:10;;;;;;;4.30;3.50;;;;;;;20.26;29.95;100570.50;16107825;19;129917;-43
2023/12/05 17:18:32;;;;;;;4.10;2.95;;;;;;;20.12;29.57;100574.84;16108247;19;129851;-46
2023/12/05 17:23:54;;;;;;;7.50;4.20;;;;;;;19.97;29.71;100584.69;16114993;19;129829;-45
2023/12/05 17:29:16;;;;;;;9.52;5.60;;;;;;;19.83;30.30;100600.94;16108481;19;129673;-44
2023/12/05 17:34:38;;;;;;;17.33;5.80;;;;;;;19.72;30.34;100607.50;16109369;19;130894;-48
2023/12/05 17:40:04;;;;;;;11.95;6.60;;;;;;;19.62;30.17;100612.94;16105431;19;130412;-45
2023/12/05 17:45:26;;;;;;;11.50;5.53;;;;;;;19.60;30.21;100613.19;16107758;19;129711;-44
2023/12/05 17:50:48;;;;;;;10.35;4.95;;;;;;;19.69;30.12;100617.16;16103932;19;130181;-49
2023/12/05 17:56:11;;;;;;;11.70;4.50;;;;;;;19.86;30.13;100638.44;16099375;19;129522;-50
2023/12/05 18:01:33;;;;;;;10.45;4.15;;;;;;;20.25;29.96;100641.06;16107794;19;129690;-44
2023/12/05 18:06:56;;;;;;;7.00;3.53;;;;;;;20.78;29.71;100642.31;16120754;19;131898;-51
2023/12/05 18:12:38;;;;;;;8.93;3.70;;;;;;;21.16;29.34;100655.06;16121001;19;131023;-51
2023/12/05 18:18:00;;;;;;;9.77;3.92;;;;;;;21.33;29.64;100665.16;16120983;19;130582;-51
2023/12/05 18:23:22;;;;;;;5.53;3.50;;;;;;;21.32;29.42;100671.81;16120582;19;130201;-51
2023/12/05 18:28:44;;;;;;;6.43;3.47;;;;;;;21.24;29.75;100669.56;16121354;19;129761;-52
2023/12/05 18:34:07;;;;;;;4.60;3.42;;;;;;;21.09;30.25;100671.16;16120734;19;129565;-49
2023/12/05 18:39:29;;;;;;;4.85;3.53;;;;;;;20.92;30.04;100676.06;16121343;19;129799;-45
2023/12/05 18:44:51;;;;;;;7.55;3.20;;;;;;;20.75;30.41;100688.13;16121714;19;129162;-47
2023/12/05 18:50:13;;;;;;;9.82;3.35;;;;;;;20.62;31.05;100691.38;16118298;19;130031;-46
2023/12/05 18:55:35;;;;;;;5.38;2.83;;;;;;;20.56;31.13;100691.31;16119431;19;133959;-46
2023/12/05 19:00:57;;;;;;;6.20;2.67;;;;;;;20.79;30.94;100703.22;16119918;19;130207;-44
2023/12/05 19:06:19;;;;;;;4.13;2.47;;;;;;;21.18;30.57;100708.47;16112837;19;129686;-51
2023/12/05 19:11:41;;;;;;;5.13;2.83;;;;;;;21.63;30.26;100713.75;16116105;19;130526;-44
2023/12/05 19:17:05;;;;;;;8.85;2.80;;;;;;;22.05;30.27;100721.09;16119914;19;129587;-45
2023/12/05 19:22:27;;;;;;;4.22;2.40;;;;;;;22.41;29.90;100729.56;16118395;19;129958;-46
2023/12/05 19:27:49;;;;;;;7.10;2.80;;;;;;;22.68;29.63;100727.63;16115560;19;129894;-43
2023/12/05 19:33:13;;;;;;;5.07;2.22;;;;;;;22.88;29.66;100732.38;16115856;19;130710;-43
2023/12/05 19:38:35;;;;;;;5.50;2.20;;;;;;;22.99;29.66;100734.06;16115935;19;134370;-48
2023/12/05 19:43:57;;;;;;;5.53;1.95;;;;;;;22.97;29.83;100736.28;16116145;19;130159;-45
2023/12/05 19:49:19;;;;;;;7.68;2.30;;;;;;;22.87;29.76;100737.09;16115049;19;132034;-45
2023/12/05 19:54:41;;;;;;;4.32;2.42;;;;;;;22.69;30.04;100749.66;16114806;19;129694;-46
2023/12/05 20:00:04;;;;;;;5.10;2.03;;;;;;;22.49;30.20;100746.88;16116240;19;131099;-43
2023/12/05 20:05:26;;;;;;;6.10;2.10;;;;;;;22.28;30.33;100763.53;16115062;19;130538;-46
2023/12/05 20:10:48;;;;;;;6.68;2.30;;;;;;;22.10;30.70;100771.28;16111455;19;131097;-47
2023/12/05 20:16:10;;;;;;;5.13;2.20;;;;;;;21.97;30.99;100774.56;16112395;19;131865;-45
2023/12/05 20:21:33;;;;;;;3.95;2.03;;;;;;;21.83;31.01;100775.06;16116930;19;129684;-45
2023/12/05 20:26:55;;;;;;;5.90;2.08;;;;;;;21.71;31.25;100780.03;16114217;19;130516;-45
2023/12/05 20:32:20;;;;;;;6.72;2.00;;;;;;;21.59;31.28;100783.06;16114402;19;129749;-46
2023/12/05 20:37:42;;;;;;;6.78;2.88;;;;;;;21.52;31.41;100785.22;16112229;19;129737;-46
2023/12/05 20:43:04;;;;;;;3.63;2.30;;;;;;;21.52;31.84;100791.63;16110177;19;130763;-46
2023/12/05 20:48:27;;;;;;;4.63;2.30;;;;;;;21.63;31.44;100797.25;16110863;19;129554;-43
2023/12/05 20:53:53;;;;;;;7.80;2.20;;;;;;;21.75;31.51;100800.66;16109207;19;128880;-43
2023/12/05 20:59:15;;;;;;;4.15;2.15;;;;;;;21.88;31.53;100804.06;16109685;19;131847;-43
2023/12/05 21:04:37;;;;;;;6.00;2.20;;;;;;;22.01;31.10;100809.13;16110245;19;130095;-45
2023/12/05 21:09:59;;;;;;;4.85;2.08;;;;;;;22.03;30.73;100812.47;16108781;19;131776;-48
2023/12/05 21:15:21;;;;;;;4.07;1.67;;;;;;;21.96;30.86;100828.59;16107850;19;129390;-47
2023/12/05 21:20:43;;;;;;;4.68;1.73;;;;;;;21.82;31.11;100820.75;16098885;19;130216;-47
2023/12/05 21:26:05;;;;;;;7.18;2.45;;;;;;;21.68;30.70;100827.91;16106859;19;130246;-48
2023/12/05 21:31:27;;;;;;;2.92;2.20;;;;;;;21.50;31.19;100838.38;16109207;19;131494;-48
2023/12/05 21:36:52;;;;;;;3.47;2.20;;;;;;;21.34;30.75;100851.31;16117183;19;132105;-46
2023/12/05 21:42:14;;;;;;;3.15;2.35;;;;;;;21.16;31.26;100860.06;16119713;19;131156;-45
2023/12/05 21:47:36;;;;;;;6.22;2.47;;;;;;;20.97;31.26;100868.81;16124682;19;129687;-51
2023/12/05 21:52:58;;;;;;;4.97;2.50;;;;;;;20.82;31.04;100883.41;16121203;19;129842;-47
2023/12/05 21:58:20;;;;;;;2.35;1.92;;;;;;;20.67;31.09;100880.44;16119831;19;129585;-48
2023/12/05 22:03:42;;;;;;;5.28;2.30;;;;;;;20.54;30.96;100890.88;16121514;19;129718;-44
2023/12/05 22:09:04;;;;;;;2.90;2.15;;;;;;;20.45;31.06;100889.63;16120307;19;130156;-48
2023/12/05 22:14:26;;;;;;;3.25;2.30;;;;;;;20.37;31.15;100881.75;16119193;19;130358;-46
2023/12/05 22:19:48;;;;;;;8.32;2.40;;;;;;;20.26;31.47;100892.75;16120860;19;129802;-48
2023/12/05 22:25:10;;;;;;;3.15;1.92;;;;;;;20.15;31.59;100904.81;16117056;19;130985;-48
2023/12/05 22:30:32;;;;;;;3.85;2.15;;;;;;;20.05;31.61;100897.19;16122522;19;130240;-47
2023/12/05 22:35:56;;;;;;;5.28;2.13;;;;;;;19.97;31.87;100905.94;16120517;19;129437;-47
2023/12/05 22:41:19;;;;;;;3.85;2.13;;;;;;;19.89;31.95;100921.09;16119332;19;130095;-49
2023/12/05 22:46:41;;;;;;;3.60;2.05;;;;;;;19.84;32.04;100932.97;16115832;19;130600;-47
2023/12/05 22:52:04;;;;;;;4.32;2.03;;;;;;;19.79;31.61;100932.88;16121700;19;130795;-47
2023/12/05 22:57:26;;;;;;;3.30;2.20;;;;;;;19.74;31.73;100945.84;16116760;19;131781;-45
2023/12/05 23:02:48;;;;;;;5.15;2.35;;;;;;;19.67;31.86;100960.75;16120053;19;129566;-49
2023/12/05 23:08:10;;;;;;;2.75;2.10;;;;;;;19.61;31.71;100958.97;16116990;19;131063;-48
2023/12/05 23:13:32;;;;;;;2.35;2.10;;;;;;;19.56;31.90;100972.78;16118889;19;129393;-45
2023/12/05 23:18:53;;;;;;;2.15;1.95;;;;;;;19.52;32.19;100974.34;16118791;19;129830;-46
2023/12/05 23:24:16;;;;;;;2.47;2.10;;;;;;;19.48;32.13;100989.81;16120343;19;129773;-46
2023/12/05 23:29:37;;;;;;;2.85;2.03;;;;;;;19.43;32.14;100995.28;16117361;19;129650;-47
2023/12/05 23:35:00;;;;;;;3.63;1.90;;;;;;;19.38;32.10;101005.19;16116727;19;129643;-49
2023/12/05 23:40:22;;;;;;;4.53;2.42;;;;;;;19.34;31.95;101000.41;16115965;19;129926;-51
2023/12/05 23:45:45;;;;;;;2.55;2.20;;;;;;;19.30;32.16;101004.75;16114994;19;130250;-49
2023/12/05 23:51:07;;;;;;;2.72;1.92;;;;;;;19.24;32.42;101006.59;16112257;19;130893;-44
2023/12/05 23:56:29;;;;;;;3.40;2.20;;;;;;;19.21;31.93;101001.53;16111804;19;130531;-44
